Time;durP1;ratioP1;P1;durP2;ratioP2;P2;SDS_P1;SDS_P2;PMS_P1;PMS_P2;Temp;Humidity;BMP_temperature;BMP_pressure;BME280_temperature;BME280_humidity;BME280_pressure;Samples;Min_cycle;Max_cycle;Signal;HPM_P1;HPM_P2
2023/02/09 00:02:01;;;;;;;13.00;8.70;;;-4.30;99.90;;;;;;7389870;19;20901;-82
2023/02/09 00:04:27;;;;;;;16.05;9.02;;;-4.30;99.90;;;;;;7388770;19;21005;-84
2023/02/09 00:06:53;;;;;;;15.87;10.83;;;-4.30;99.90;;;;;;7389141;19;20313;-81
2023/02/09 00:09:18;;;;;;;14.15;8.98;;;-4.30;99.90;;;;;;7388806;19;20329;-89
2023/02/09 00:14:28;;;;;;;14.75;9.15;;;-4.30;99.90;;;;;;7287619;19;2004180;-83
2023/02/09 00:16:54;;;;;;;14.17;9.17;;;-4.30;99.90;;;;;;7389638;19;20341;-82
2023/02/09 00:19:20;;;;;;;14.55;9.10;;;-4.30;99.90;;;;;;7388560;19;20869;-81
2023/02/09 00:21:45;;;;;;;12.38;8.35;;;-4.40;99.90;;;;;;7393984;19;20717;-82
2023/02/09 00:24:11;;;;;;;15.23;10.20;;;-4.40;99.90;;;;;;7396268;19;21059;-84
2023/02/09 00:26:37;;;;;;;17.30;9.90;;;-4.40;99.90;;;;;;7396670;19;20341;-82
2023/02/09 00:29:04;;;;;;;14.05;8.77;;;-4.40;99.90;;;;;;7399153;19;20332;-88
2023/02/09 00:31:29;;;;;;;12.88;9.23;;;-4.50;99.90;;;;;;7396176;19;20320;-86
2023/02/09 00:33:57;;;;;;;11.45;8.18;;;-4.40;99.90;;;;;;7396130;19;20855;-84
2023/02/09 00:36:24;;;;;;;13.18;8.23;;;-4.50;99.90;;;;;;7397431;19;20345;-83
2023/02/09 00:38:51;;;;;;;17.08;8.77;;;-4.50;99.90;;;;;;7398920;19;20328;-83
2023/02/09 00:41:16;;;;;;;14.45;9.70;;;-4.50;99.90;;;;;;7396970;19;20638;-81
2023/02/09 00:43:42;;;;;;;14.30;8.83;;;-4.50;99.90;;;;;;7396041;19;21231;-80
2023/02/09 00:46:07;;;;;;;14.63;9.85;;;-4.60;99.90;;;;;;7397352;19;20313;-84
2023/02/09 00:48:33;;;;;;;12.95;8.40;;;-4.70;99.90;;;;;;7395999;19;20349;-86
2023/02/09 00:50:59;;;;;;;11.30;8.50;;;-4.70;99.90;;;;;;7396459;19;20324;-84
2023/02/09 00:53:25;;;;;;;13.97;8.70;;;-4.70;99.90;;;;;;7395581;19;20402;-85
2023/02/09 00:55:50;;;;;;;13.65;8.75;;;-4.60;99.90;;;;;;7398048;19;20325;-79
2023/02/09 00:58:16;;;;;;;13.10;8.50;;;-4.60;99.90;;;;;;7397416;19;20358;-84
2023/02/09 01:00:42;;;;;;;13.73;8.50;;;-4.60;99.90;;;;;;7395422;19;20336;-80
2023/02/09 01:03:08;;;;;;;13.65;9.15;;;-4.70;99.90;;;;;;7397249;19;20313;-89
2023/02/09 01:05:36;;;;;;;13.10;8.80;;;-4.70;99.90;;;;;;7395994;19;20356;-82
2023/02/09 01:08:03;;;;;;;12.65;8.10;;;-4.70;99.90;;;;;;7396697;19;20305;-86
2023/02/09 01:10:29;;;;;;;11.33;8.00;;;-4.70;99.90;;;;;;7395746;19;20342;-87
2023/02/09 01:12:54;;;;;;;13.10;8.85;;;-4.70;99.90;;;;;;7395111;19;20317;-80
2023/02/09 01:15:20;;;;;;;12.17;8.27;;;-4.70;99.90;;;;;;7394602;19;20313;-82
2023/02/09 01:17:46;;;;;;;13.07;8.20;;;-4.70;99.90;;;;;;7395926;19;20358;-86
2023/02/09 01:20:11;;;;;;;14.65;9.18;;;-4.80;99.90;;;;;;7395604;19;20361;-82
2023/02/09 01:22:37;;;;;;;11.43;7.83;;;-4.80;99.90;;;;;;7394840;19;20325;-81
2023/02/09 01:25:04;;;;;;;14.65;8.32;;;-4.90;99.90;;;;;;7395041;19;20396;-85
2023/02/09 01:27:29;;;;;;;11.48;8.07;;;-4.90;99.90;;;;;;7395444;19;20338;-82
2023/02/09 01:29:55;;;;;;;13.07;7.97;;;-5.00;99.90;;;;;;7394725;19;20320;-85
2023/02/09 01:32:21;;;;;;;12.13;7.50;;;-4.90;99.90;;;;;;7393286;19;20316;-80
2023/02/09 01:34:50;;;;;;;14.63;8.27;;;-5.00;99.90;;;;;;7393874;19;20344;-85
2023/02/09 01:37:16;;;;;;;11.13;7.78;;;-5.00;99.90;;;;;;7394690;19;20332;-81
2023/02/09 01:39:42;;;;;;;11.93;8.00;;;-5.00;99.90;;;;;;7394880;19;20325;-82
2023/02/09 01:42:18;;;;;;;13.38;8.02;;;-5.00;99.90;;;;;;7394556;19;20323;-85
2023/02/09 01:44:43;;;;;;;15.65;9.77;;;-5.00;99.90;;;;;;7397303;19;20308;-84
2023/02/09 01:47:16;;;;;;;12.87;8.23;;;-5.10;99.90;;;;;;7396416;19;20309;-83
2023/02/09 01:49:42;;;;;;;14.02;8.70;;;-5.20;99.90;;;;;;7393643;19;20372;-82
2023/02/09 01:52:11;;;;;;;12.32;8.20;;;-5.20;99.90;;;;;;7394725;19;20315;-80
2023/02/09 01:54:49;;;;;;;14.98;7.85;;;-5.20;99.90;;;;;;7394167;19;20343;-79
2023/02/09 01:57:19;;;;;;;14.20;8.60;;;-5.20;99.90;;;;;;7393791;19;20375;-82
2023/02/09 01:59:47;;;;;;;12.88;8.10;;;-5.20;99.90;;;;;;7392643;19;20340;-81
2023/02/09 02:02:12;;;;;;;13.82;8.32;;;-5.20;99.90;;;;;;7391792;19;20394;-81
2023/02/09 02:04:38;;;;;;;15.60;8.80;;;-5.10;99.90;;;;;;7395289;19;20305;-85
2023/02/09 02:07:12;;;;;;;13.02;8.63;;;-5.30;99.90;;;;;;7394044;19;20347;-83
2023/02/09 02:09:38;;;;;;;13.40;8.32;;;-5.30;99.90;;;;;;7392294;19;20317;-79
2023/02/09 02:12:04;;;;;;;14.35;8.50;;;-5.40;99.90;;;;;;7392318;19;20341;-81
2023/02/09 02:14:35;;;;;;;12.83;8.03;;;-5.40;99.90;;;;;;7392767;19;20876;-83
2023/02/09 02:17:27;;;;;;;11.32;7.82;;;-5.40;99.90;;;;;;7392347;19;20329;-79
2023/02/09 02:19:55;;;;;;;15.13;8.85;;;-5.40;99.90;;;;;;7290377;19;2004556;-82
2023/02/09 02:22:29;;;;;;;17.00;9.07;;;-5.40;99.90;;;;;;7392943;19;20322;-84
2023/02/09 02:25:14;;;;;;;11.48;7.72;;;-5.50;99.90;;;;;;7392081;19;20305;-82
2023/02/09 02:28:17;;;;;;;12.52;7.82;;;-5.60;99.90;;;;;;7391689;19;20321;-82
2023/02/09 02:31:10;;;;;;;15.63;8.73;;;-5.60;99.90;;;;;;7288587;19;2004277;-82
2023/02/09 02:33:57;;;;;;;13.50;8.27;;;-5.60;99.90;;;;;;7287166;19;2004208;-79
2023/02/09 02:36:41;;;;;;;15.23;8.43;;;-5.60;99.90;;;;;;7289784;19;2018130;-86
2023/02/09 02:39:32;;;;;;;15.27;8.55;;;-5.70;99.90;;;;;;7392388;19;20333;-85
2023/02/09 02:45:25;;;;;;;11.80;8.10;;;-5.80;99.90;;;;;;7286835;19;2004410;-84
2023/02/09 02:47:59;;;;;;;12.77;8.33;;;-5.90;99.90;;;;;;7288630;19;2004122;-82
2023/02/09 02:50:26;;;;;;;12.20;7.70;;;-5.90;99.90;;;;;;7391871;19;20324;-82
2023/02/09 02:52:52;;;;;;;13.02;8.30;;;-5.90;99.90;;;;;;7392248;19;20336;-85
2023/02/09 02:55:24;;;;;;;13.60;8.02;;;-5.90;99.90;;;;;;7388671;19;20377;-85
2023/02/09 02:57:50;;;;;;;11.93;8.30;;;-6.00;99.90;;;;;;7394563;19;20320;-83
2023/02/09 03:00:21;;;;;;;15.63;9.00;;;-6.00;99.90;;;;;;7391511;19;20357;-81
2023/02/09 03:02:52;;;;;;;11.63;7.57;;;-6.10;99.90;;;;;;7391263;19;20354;-82
2023/02/09 03:05:18;;;;;;;11.93;7.82;;;-6.10;99.90;;;;;;7369691;19;20328;-80
2023/02/09 03:07:43;;;;;;;12.15;8.20;;;-6.10;99.90;;;;;;7390461;19;20727;-79
2023/02/09 03:10:33;;;;;;;10.57;7.50;;;-6.10;99.90;;;;;;7390847;19;20321;-82
2023/02/09 03:13:06;;;;;;;12.70;7.80;;;-6.10;99.90;;;;;;7290129;19;2004404;-82
2023/02/09 03:15:53;;;;;;;12.15;8.00;;;-6.10;99.90;;;;;;7390701;19;20341;-84
2023/02/09 03:18:27;;;;;;;12.13;8.20;;;-6.10;99.90;;;;;;7290053;19;2004373;-79
2023/02/09 03:20:58;;;;;;;12.93;8.43;;;-6.10;99.90;;;;;;7389887;19;20730;-80
2023/02/09 03:23:39;;;;;;;11.30;7.72;;;-6.10;99.90;;;;;;7390862;19;20345;-82
2023/02/09 03:26:08;;;;;;;14.20;8.50;;;-6.20;99.90;;;;;;7390689;19;20348;-87
2023/02/09 03:28:34;;;;;;;12.98;8.30;;;-6.20;99.90;;;;;;7392273;19;20347;-80
2023/02/09 03:31:00;;;;;;;10.40;7.93;;;-6.30;99.90;;;;;;7391008;19;20324;-84
2023/02/09 03:33:27;;;;;;;16.23;9.93;;;-6.30;99.90;;;;;;7390058;19;20328;-85
2023/02/09 03:35:55;;;;;;;14.90;9.15;;;-6.40;99.90;;;;;;7389069;19;20312;-88
2023/02/09 03:38:20;;;;;;;12.27;8.30;;;-6.70;99.90;;;;;;7390162;19;20392;-81
2023/02/09 03:40:46;;;;;;;11.48;7.75;;;-6.70;99.90;;;;;;7390413;19;20989;-85
2023/02/09 03:43:12;;;;;;;13.03;7.80;;;-6.70;99.90;;;;;;7390098;19;20305;-82
2023/02/09 03:45:37;;;;;;;11.57;7.30;;;-6.70;99.90;;;;;;7388929;19;20341;-82
2023/02/09 03:48:06;;;;;;;12.90;7.53;;;-6.60;99.90;;;;;;7389486;19;20336;-82
2023/02/09 03:50:33;;;;;;;15.23;8.43;;;-6.60;99.90;;;;;;7388397;19;20356;-78
2023/02/09 03:52:59;;;;;;;11.55;7.20;;;-6.50;99.90;;;;;;7388389;19;20340;-80
2023/02/09 03:55:24;;;;;;;13.43;8.65;;;-6.50;99.90;;;;;;7390772;19;20367;-82
2023/02/09 03:57:50;;;;;;;17.15;9.93;;;-6.60;99.90;;;;;;7395146;19;20308;-85
2023/02/09 04:00:16;;;;;;;16.57;8.57;;;-6.80;99.90;;;;;;7395934;19;20347;-87
2023/02/09 04:02:42;;;;;;;16.43;8.33;;;-6.90;99.90;;;;;;7396502;19;20316;-81
2023/02/09 04:05:07;;;;;;;11.88;8.32;;;-7.10;99.90;;;;;;7398395;19;20799;-82
2023/02/09 04:07:33;;;;;;;14.27;8.20;;;-7.00;99.90;;;;;;7393284;19;20308;-81
2023/02/09 04:09:58;;;;;;;12.85;7.57;;;-7.00;99.90;;;;;;7399520;19;20313;-87
2023/02/09 04:12:24;;;;;;;14.07;8.13;;;-7.00;99.90;;;;;;7398694;19;20893;-83
2023/02/09 04:14:50;;;;;;;15.82;9.15;;;-7.00;99.90;;;;;;7398388;19;20320;-83
2023/02/09 04:17:19;;;;;;;11.60;8.18;;;-7.00;99.90;;;;;;7397851;19;20459;-86
2023/02/09 04:19:45;;;;;;;11.50;7.80;;;-7.10;99.90;;;;;;7397629;19;20750;-83
2023/02/09 04:22:12;;;;;;;12.30;7.68;;;-6.90;99.90;;;;;;7395662;19;20320;-83
2023/02/09 04:24:42;;;;;;;11.93;8.00;;;-7.10;99.90;;;;;;7396857;19;20319;-84
2023/02/09 04:27:08;;;;;;;13.93;8.67;;;-7.10;99.90;;;;;;7399140;19;20313;-88
2023/02/09 04:29:33;;;;;;;13.05;8.13;;;-7.00;99.90;;;;;;7398640;19;20747;-81
2023/02/09 04:31:59;;;;;;;10.33;7.00;;;-7.00;99.90;;;;;;7395829;19;20312;-83
2023/02/09 04:34:25;;;;;;;11.77;7.27;;;-7.00;99.90;;;;;;7397083;19;21213;-82
2023/02/09 04:36:50;;;;;;;11.60;7.07;;;-6.90;99.90;;;;;;7395120;19;20313;-80
2023/02/09 04:39:16;;;;;;;11.90;7.10;;;-6.90;99.90;;;;;;7397383;19;20297;-81
2023/02/09 04:41:41;;;;;;;10.18;6.85;;;-6.90;99.90;;;;;;7393618;19;20312;-84
2023/02/09 04:44:07;;;;;;;10.70;6.60;;;-6.90;99.90;;;;;;7396120;19;20354;-81
2023/02/09 04:46:33;;;;;;;12.40;7.20;;;-6.90;99.90;;;;;;7395849;19;20636;-81
2023/02/09 04:49:00;;;;;;;14.40;7.38;;;-6.90;99.90;;;;;;7393725;19;20321;-81
2023/02/09 04:51:26;;;;;;;12.80;7.40;;;-6.80;99.90;;;;;;7398409;19;20356;-87
2023/02/09 04:53:51;;;;;;;12.13;7.20;;;-6.90;99.90;;;;;;7395492;19;20324;-83
2023/02/09 04:56:17;;;;;;;12.60;7.40;;;-6.80;99.90;;;;;;7397929;19;20346;-85
2023/02/09 05:01:27;;;;;;;11.40;6.85;;;-6.90;99.90;;;;;;7290782;19;2004382;-83
2023/02/09 05:03:54;;;;;;;10.00;7.05;;;-6.90;99.90;;;;;;7395048;19;20319;-83
2023/02/09 05:06:20;;;;;;;11.10;6.72;;;-6.90;99.90;;;;;;7395442;19;20348;-86
2023/02/09 05:08:46;;;;;;;12.13;7.30;;;-6.90;99.90;;;;;;7392001;19;20331;-84
2023/02/09 05:11:11;;;;;;;11.38;7.03;;;-6.90;99.90;;;;;;7392409;19;20316;-81
2023/02/09 05:13:37;;;;;;;11.45;7.25;;;-7.00;99.90;;;;;;7394742;19;20525;-83
2023/02/09 05:16:06;;;;;;;11.80;6.70;;;-7.00;99.90;;;;;;7390445;19;20320;-79
2023/02/09 05:18:32;;;;;;;12.50;7.17;;;-7.00;99.90;;;;;;7392334;19;20317;-80
2023/02/09 05:20:59;;;;;;;11.87;7.17;;;-7.00;99.90;;;;;;7391976;19;20864;-82
2023/02/09 05:23:26;;;;;;;10.50;7.22;;;-7.00;99.90;;;;;;7385445;19;20320;-82
2023/02/09 05:25:53;;;;;;;11.27;7.07;;;-7.00;99.90;;;;;;7388813;19;20331;-81
2023/02/09 05:28:24;;;;;;;10.80;6.80;;;-7.00;99.90;;;;;;7388983;19;20339;-82
2023/02/09 05:30:52;;;;;;;12.07;7.45;;;-7.00;99.90;;;;;;7388011;19;20366;-79
2023/02/09 05:33:20;;;;;;;13.93;7.63;;;-7.00;99.90;;;;;;7386636;19;20803;-82
2023/02/09 05:35:46;;;;;;;9.57;6.78;;;-7.00;99.90;;;;;;7389978;19;20841;-81
2023/02/09 05:38:12;;;;;;;11.30;6.83;;;-7.00;99.90;;;;;;7390142;19;20324;-82
2023/02/09 05:40:37;;;;;;;13.30;6.87;;;-6.90;99.90;;;;;;7395032;19;20316;-85
2023/02/09 05:43:03;;;;;;;12.63;7.00;;;-7.00;99.90;;;;;;7393714;19;20328;-80
2023/02/09 05:45:29;;;;;;;10.27;6.60;;;-7.10;99.90;;;;;;7395576;19;20332;-82
2023/02/09 05:47:55;;;;;;;8.38;6.13;;;-7.20;99.90;;;;;;7398050;19;20354;-83
2023/02/09 05:50:21;;;;;;;9.82;6.10;;;-7.20;99.90;;;;;;7391198;19;20340;-81
2023/02/09 05:52:47;;;;;;;9.18;6.45;;;-7.20;99.90;;;;;;7391951;19;20986;-81
2023/02/09 05:55:12;;;;;;;10.40;6.43;;;-7.20;99.90;;;;;;7394054;19;20348;-82
2023/02/09 05:57:38;;;;;;;9.20;6.23;;;-7.10;99.90;;;;;;7397592;19;20365;-84
2023/02/09 06:00:05;;;;;;;10.32;7.10;;;-7.10;99.90;;;;;;7395555;19;20353;-81
2023/02/09 06:02:37;;;;;;;10.48;6.57;;;-7.10;99.90;;;;;;7387207;19;20320;-78
2023/02/09 06:05:06;;;;;;;9.77;6.45;;;-7.10;99.90;;;;;;7379443;19;20317;-79
2023/02/09 06:07:31;;;;;;;11.52;6.50;;;-7.10;99.90;;;;;;7380896;19;20345;-80
2023/02/09 06:09:57;;;;;;;12.07;6.30;;;-7.00;99.90;;;;;;7375464;19;21169;-80
2023/02/09 06:12:23;;;;;;;7.53;6.13;;;-7.20;99.90;;;;;;7379657;19;20410;-80
2023/02/09 06:14:49;;;;;;;9.38;6.90;;;-7.20;99.90;;;;;;7378684;19;20314;-81
2023/02/09 06:17:15;;;;;;;10.07;6.82;;;-7.20;99.90;;;;;;7385745;19;20311;-82
2023/02/09 06:19:40;;;;;;;8.18;6.38;;;-7.20;99.90;;;;;;7385067;19;20318;-80
2023/02/09 06:22:06;;;;;;;10.90;7.03;;;-7.20;99.90;;;;;;7384270;19;20325;-81
2023/02/09 06:24:32;;;;;;;11.75;8.30;;;-7.10;99.90;;;;;;7386265;19;20316;-82
2023/02/09 06:26:57;;;;;;;14.73;8.07;;;-7.20;99.90;;;;;;7385144;19;20301;-82
2023/02/09 06:29:23;;;;;;;10.82;6.82;;;-7.30;99.90;;;;;;7384998;19;20308;-82
2023/02/09 06:31:49;;;;;;;9.60;6.80;;;-7.30;99.90;;;;;;7382769;19;20314;-85
2023/02/09 06:34:27;;;;;;;11.82;7.18;;;-7.30;99.90;;;;;;7386460;19;20345;-83
2023/02/09 06:36:53;;;;;;;9.10;6.95;;;-7.30;99.90;;;;;;7282327;19;2004460;-80
2023/02/09 06:39:19;;;;;;;11.73;7.03;;;-7.20;99.90;;;;;;7388614;19;20378;-83
2023/02/09 06:41:44;;;;;;;9.07;6.32;;;-7.20;99.90;;;;;;7387329;19;20313;-81
2023/02/09 06:44:11;;;;;;;10.30;6.37;;;-7.20;99.90;;;;;;7387961;19;20312;-83
2023/02/09 06:46:40;;;;;;;10.63;6.72;;;-7.20;99.90;;;;;;7391964;19;20332;-84
2023/02/09 06:49:05;;;;;;;12.15;6.85;;;-7.20;99.90;;;;;;7389590;19;20316;-80
2023/02/09 06:51:31;;;;;;;12.23;7.60;;;-7.10;99.90;;;;;;7389521;19;20301;-79
2023/02/09 06:53:57;;;;;;;10.97;7.30;;;-7.20;99.90;;;;;;7388987;19;20321;-79
2023/02/09 06:56:23;;;;;;;11.15;7.78;;;-7.10;99.90;;;;;;7387708;19;20308;-85
2023/02/09 06:58:48;;;;;;;7.72;6.30;;;-7.10;99.90;;;;;;7386433;19;20321;-86
2023/02/09 07:01:14;;;;;;;10.70;6.33;;;-7.00;99.90;;;;;;7391319;19;20336;-82
2023/02/09 07:03:42;;;;;;;8.25;6.35;;;-7.00;99.90;;;;;;7387490;19;20341;-79
2023/02/09 07:06:09;;;;;;;9.35;6.25;;;-7.00;99.90;;;;;;7389116;19;20906;-82
2023/02/09 07:08:35;;;;;;;7.93;5.80;;;-7.00;99.90;;;;;;7384483;19;20878;-82
2023/02/09 07:11:05;;;;;;;10.27;6.33;;;-6.90;99.90;;;;;;7389175;19;20305;-80
2023/02/09 07:13:32;;;;;;;10.13;6.13;;;-6.90;99.90;;;;;;7386888;19;20432;-81
2023/02/09 07:16:05;;;;;;;10.87;6.40;;;-6.80;99.90;;;;;;7385313;19;20328;-81
2023/02/09 07:18:31;;;;;;;9.93;5.70;;;-6.80;99.90;;;;;;7389394;19;20333;-79
2023/02/09 07:21:04;;;;;;;8.50;5.77;;;-6.80;99.90;;;;;;7381721;19;20371;-80
2023/02/09 07:23:30;;;;;;;8.75;5.50;;;-6.80;99.90;;;;;;7383083;19;21196;-81
2023/02/09 07:25:55;;;;;;;9.30;5.78;;;-6.80;99.90;;;;;;7389706;19;20317;-81
2023/02/09 07:28:21;;;;;;;7.83;5.53;;;-6.70;99.90;;;;;;7386874;19;20320;-79
2023/02/09 07:30:52;;;;;;;8.57;6.25;;;-6.70;99.90;;;;;;7395008;19;20316;-80
2023/02/09 07:33:18;;;;;;;10.10;6.88;;;-6.60;99.90;;;;;;7400629;19;20320;-80
2023/02/09 07:35:44;;;;;;;9.20;6.50;;;-6.60;99.90;;;;;;7378142;19;20385;-82
2023/02/09 07:38:10;;;;;;;10.67;6.70;;;-6.50;99.90;;;;;;7399626;19;20849;-83
2023/02/09 07:40:37;;;;;;;10.27;6.60;;;-6.40;99.90;;;;;;7400899;19;20368;-83
2023/02/09 07:43:03;;;;;;;9.10;6.47;;;-6.30;99.90;;;;;;7400499;19;20309;-83
2023/02/09 07:45:29;;;;;;;10.75;6.70;;;-6.10;99.90;;;;;;7402021;19;20327;-79
2023/02/09 07:47:57;;;;;;;10.20;6.80;;;-6.00;99.90;;;;;;7402316;19;21058;-81
2023/02/09 07:50:23;;;;;;;10.68;7.03;;;-5.70;99.90;;;;;;7401681;19;20344;-80
2023/02/09 07:52:52;;;;;;;11.45;7.68;;;-5.50;99.90;;;;;;7401455;19;20312;-83
2023/02/09 07:55:18;;;;;;;11.00;7.82;;;-5.20;99.90;;;;;;7403814;19;20330;-81
2023/02/09 07:57:44;;;;;;;14.57;8.23;;;-5.00;99.90;;;;;;7402817;19;20321;-80
2023/02/09 08:00:10;;;;;;;10.20;7.65;;;-4.80;99.90;;;;;;7396591;19;20311;-80
2023/02/09 08:02:40;;;;;;;12.38;7.95;;;-4.60;99.90;;;;;;7400920;19;20300;-88
2023/02/09 08:05:10;;;;;;;13.55;8.73;;;-4.40;99.90;;;;;;7399095;19;20841;-79
2023/02/09 08:07:37;;;;;;;12.13;8.20;;;-4.10;99.90;;;;;;7401399;19;20892;-81
2023/02/09 08:10:02;;;;;;;12.63;8.38;;;-4.00;99.90;;;;;;7398039;19;20341;-83
2023/02/09 08:15:13;;;;;;;10.73;7.80;;;-3.80;99.90;;;;;;7403139;19;21261;-83
2023/02/09 08:17:38;;;;;;;12.88;8.48;;;-3.60;99.90;;;;;;7400068;19;20355;-84
2023/02/09 08:20:09;;;;;;;12.33;8.53;;;-3.60;99.90;;;;;;7399305;19;20323;-84
2023/02/09 08:22:37;;;;;;;11.57;8.10;;;-3.60;99.90;;;;;;7404215;19;20363;-80
2023/02/09 08:25:03;;;;;;;13.67;8.33;;;-3.50;99.90;;;;;;7398098;19;20328;-82
2023/02/09 08:27:29;;;;;;;12.48;7.85;;;-3.30;99.90;;;;;;7397515;19;20853;-79
2023/02/09 08:29:56;;;;;;;13.50;8.90;;;-3.20;99.90;;;;;;7397750;19;20318;-80
2023/02/09 08:32:22;;;;;;;12.10;8.50;;;-3.10;99.90;;;;;;7394450;19;20324;-81
2023/02/09 08:34:52;;;;;;;12.20;8.80;;;-3.10;99.90;;;;;;7399960;19;20316;-79
2023/02/09 08:37:18;;;;;;;11.23;8.77;;;-3.00;99.90;;;;;;7379870;19;20397;-86
2023/02/09 08:39:44;;;;;;;11.10;8.17;;;-2.90;99.90;;;;;;7397581;19;20328;-81
2023/02/09 08:42:09;;;;;;;11.43;8.37;;;-2.80;99.90;;;;;;7393108;19;20372;-83
2023/02/09 08:44:35;;;;;;;12.27;9.18;;;-2.70;99.90;;;;;;7392000;19;20353;-81
2023/02/09 08:47:01;;;;;;;11.13;8.47;;;-2.60;99.90;;;;;;7391885;19;20854;-80
2023/02/09 08:49:26;;;;;;;12.10;8.07;;;-2.60;99.90;;;;;;7391021;19;20344;-81
2023/02/09 08:51:53;;;;;;;11.87;8.40;;;-2.40;99.90;;;;;;7389382;19;20325;-82
2023/02/09 08:54:19;;;;;;;11.05;8.20;;;-2.30;99.90;;;;;;7390823;19;20300;-84
2023/02/09 08:56:44;;;;;;;9.73;7.13;;;-2.30;99.90;;;;;;7391458;19;20640;-83
2023/02/09 08:59:10;;;;;;;11.80;7.70;;;-2.20;99.90;;;;;;7392520;19;20333;-81
2023/02/09 09:01:38;;;;;;;13.25;7.85;;;-2.00;99.90;;;;;;7392072;19;20327;-79
2023/02/09 09:04:04;;;;;;;13.20;8.90;;;-1.90;99.90;;;;;;7392289;19;20316;-82
2023/02/09 09:06:30;;;;;;;10.68;7.95;;;-1.70;99.90;;;;;;7390535;19;20301;-81
2023/02/09 09:08:55;;;;;;;12.70;8.32;;;-1.60;99.90;;;;;;7397378;19;20316;-83
2023/02/09 09:11:21;;;;;;;12.30;8.50;;;-1.40;99.90;;;;;;7397461;19;20309;-89
2023/02/09 09:13:47;;;;;;;14.40;7.88;;;-1.30;99.90;;;;;;7393635;19;20335;-86
2023/02/09 09:16:14;;;;;;;10.82;7.50;;;-1.20;99.90;;;;;;7394999;19;20363;-83
2023/02/09 09:18:40;;;;;;;10.18;7.70;;;-0.90;99.90;;;;;;7395873;19;20336;-81
2023/02/09 09:21:06;;;;;;;14.10;7.97;;;-0.70;99.90;;;;;;7391418;19;20360;-84
2023/02/09 09:23:31;;;;;;;9.40;6.67;;;-0.60;99.90;;;;;;7392778;19;20713;-81
2023/02/09 09:26:01;;;;;;;12.10;7.70;;;-0.40;99.90;;;;;;7395107;19;20313;-83
2023/02/09 09:28:27;;;;;;;9.40;7.05;;;-0.30;99.90;;;;;;7396835;19;20389;-80
2023/02/09 09:30:53;;;;;;;9.82;7.05;;;-0.10;99.90;;;;;;7391614;19;20360;-82
2023/02/09 09:33:18;;;;;;;8.73;6.73;;;0.10;99.90;;;;;;7398266;19;20289;-83
2023/02/09 09:35:44;;;;;;;11.00;6.75;;;0.20;99.90;;;;;;7396269;19;20293;-82
2023/02/09 09:38:10;;;;;;;11.53;7.30;;;0.30;99.90;;;;;;7395825;19;20321;-83
2023/02/09 09:40:36;;;;;;;8.80;6.78;;;0.40;99.90;;;;;;7392728;19;20695;-83
2023/02/09 09:43:04;;;;;;;13.75;6.93;;;0.40;99.90;;;;;;7393857;19;20328;-85
2023/02/09 09:45:31;;;;;;;10.13;7.05;;;0.60;99.90;;;;;;7395491;19;20376;-88
2023/02/09 09:47:56;;;;;;;10.70;7.05;;;0.70;99.90;;;;;;7396620;19;20708;-88
2023/02/09 09:50:26;;;;;;;10.23;7.63;;;0.70;99.90;;;;;;7399997;19;20341;-87
2023/02/09 09:52:53;;;;;;;8.50;6.40;;;0.80;99.90;;;;;;7398753;19;20330;-88
2023/02/09 09:55:21;;;;;;;9.50;7.40;;;0.90;99.90;;;;;;7400550;19;20325;-84
2023/02/09 09:57:47;;;;;;;12.82;7.70;;;1.00;99.90;;;;;;7399742;19;21204;-82
2023/02/09 10:00:21;;;;;;;10.25;7.28;;;1.10;99.90;;;;;;7395313;19;20304;-79
2023/02/09 10:02:47;;;;;;;9.82;7.40;;;1.10;99.90;;;;;;7386734;19;20339;-80
2023/02/09 10:05:15;;;;;;;11.30;7.93;;;1.20;99.90;;;;;;7387765;19;20324;-82
2023/02/09 10:07:42;;;;;;;11.63;8.30;;;1.20;99.90;;;;;;7395130;19;20645;-84
2023/02/09 10:10:20;;;;;;;12.93;8.90;;;1.20;99.90;;;;;;7399225;19;20457;-87
2023/02/09 10:12:47;;;;;;;11.38;8.20;;;1.30;99.90;;;;;;7393839;19;20309;-83
2023/02/09 10:15:16;;;;;;;9.82;8.27;;;1.40;99.90;;;;;;7392989;19;20309;-85
2023/02/09 10:17:41;;;;;;;11.90;7.63;;;1.40;99.90;;;;;;7393228;19;20312;-85
2023/02/09 10:20:07;;;;;;;10.93;7.78;;;1.50;99.90;;;;;;7391241;19;20674;-83
2023/02/09 10:22:33;;;;;;;11.45;7.25;;;1.50;99.90;;;;;;7387544;19;20355;-82
2023/02/09 10:24:59;;;;;;;11.57;7.13;;;1.60;99.90;;;;;;7385423;19;20320;-80
2023/02/09 10:27:29;;;;;;;10.00;7.22;;;1.70;99.90;;;;;;7385912;19;20308;-81
2023/02/09 10:30:18;;;;;;;10.73;7.03;;;1.70;99.90;;;;;;7384660;19;20308;-81
2023/02/09 10:32:44;;;;;;;9.97;7.20;;;1.80;99.90;;;;;;7281646;19;2004290;-85
2023/02/09 10:35:39;;;;;;;9.57;6.93;;;1.90;99.90;;;;;;7385110;19;20826;-81
2023/02/09 10:38:13;;;;;;;10.73;7.37;;;2.00;99.90;;;;;;7284043;19;2004551;-90
2023/02/09 10:40:39;;;;;;;10.63;7.03;;;2.10;99.90;;;;;;7385926;19;22982;-83
2023/02/09 10:43:06;;;;;;;12.10;7.55;;;2.20;99.90;;;;;;7385027;19;20320;-82
2023/02/09 10:45:38;;;;;;;11.50;7.93;;;2.20;99.90;;;;;;7384479;19;20336;-79
2023/02/09 10:48:12;;;;;;;12.50;8.98;;;2.30;99.90;;;;;;7386228;19;20926;-79
2023/02/09 10:50:55;;;;;;;9.38;6.93;;;2.30;99.90;;;;;;7381480;19;20342;-79
2023/02/09 10:53:32;;;;;;;11.23;7.70;;;2.30;99.90;;;;;;7279708;19;2013071;-79
2023/02/09 10:56:03;;;;;;;9.55;7.55;;;2.40;99.90;;;;;;7383872;19;20874;-81
2023/02/09 10:58:33;;;;;;;9.83;6.87;;;2.50;99.90;;;;;;7383325;19;20418;-82
2023/02/09 11:01:05;;;;;;;10.32;7.43;;;2.50;99.90;;;;;;7382556;19;20313;-79
2023/02/09 11:03:31;;;;;;;9.95;7.43;;;2.60;99.90;;;;;;7387108;19;20321;-91
2023/02/09 11:06:01;;;;;;;11.10;7.73;;;2.70;99.90;;;;;;7383593;19;21006;-80
2023/02/09 11:08:47;;;;;;;11.00;7.20;;;2.80;99.90;;;;;;7385054;19;20317;-79
2023/02/09 11:11:32;;;;;;;11.00;7.55;;;2.90;99.90;;;;;;7384260;19;20384;-82
2023/02/09 11:13:58;;;;;;;8.73;6.32;;;2.90;99.90;;;;;;7281974;19;2004409;-82
2023/02/09 11:16:46;;;;;;;10.93;7.13;;;3.00;99.90;;;;;;7386906;19;20395;-80
2023/02/09 11:19:46;;;;;;;9.60;6.85;;;3.20;99.90;;;;;;7383516;19;20368;-85
2023/02/09 11:22:38;;;;;;;8.82;7.47;;;3.30;99.90;;;;;;7283526;19;2004483;-81
2023/02/09 11:25:16;;;;;;;8.55;6.60;;;3.40;99.90;;;;;;7280624;19;2004355;-78
2023/02/09 11:28:13;;;;;;;10.35;7.35;;;3.50;99.90;;;;;;7381772;19;20759;-79
2023/02/09 11:30:42;;;;;;;9.48;7.30;;;3.50;99.90;;;;;;7279522;19;2019950;-79
2023/02/09 11:33:27;;;;;;;8.85;6.90;;;3.60;99.90;;;;;;7385469;19;20344;-77
2023/02/09 11:36:14;;;;;;;9.18;6.90;;;3.70;99.90;;;;;;7283886;19;2004363;-77
2023/02/09 11:38:53;;;;;;;8.50;6.70;;;3.80;99.90;;;;;;7384268;19;20324;-82
2023/02/09 11:44:33;;;;;;;10.65;7.35;;;4.20;99.90;;;;;;7279324;19;2004351;-78
2023/02/09 11:47:04;;;;;;;10.23;6.85;;;4.30;99.90;;;;;;7280090;19;2004404;-78
2023/02/09 11:49:39;;;;;;;8.75;7.03;;;4.40;99.90;;;;;;7381271;19;20361;-77
2023/02/09 11:52:05;;;;;;;12.30;6.93;;;4.50;99.90;;;;;;7380369;19;20348;-79
2023/02/09 11:54:30;;;;;;;9.83;6.30;;;4.60;99.90;;;;;;7382340;19;20929;-77
2023/02/09 11:56:59;;;;;;;9.45;6.15;;;4.70;99.90;;;;;;7381439;19;20324;-80
2023/02/09 11:59:31;;;;;;;9.10;6.60;;;4.90;99.90;;;;;;7382304;19;20317;-80
2023/02/09 12:02:01;;;;;;;7.73;5.80;;;5.10;99.90;;;;;;7381599;19;20354;-82
2023/02/09 12:04:39;;;;;;;7.18;5.75;;;5.00;99.90;;;;;;7381351;19;20316;-81
2023/02/09 12:07:19;;;;;;;8.65;6.07;;;5.10;99.90;;;;;;7382199;19;20304;-79
2023/02/09 12:09:48;;;;;;;8.25;6.15;;;5.20;99.90;;;;;;7382787;19;20312;-81
2023/02/09 12:12:43;;;;;;;6.40;5.20;;;5.20;99.90;;;;;;7382393;19;20313;-81
2023/02/09 12:15:21;;;;;;;6.43;5.43;;;5.20;99.90;;;;;;7279418;19;2004362;-78
2023/02/09 12:18:05;;;;;;;6.90;5.07;;;5.20;98.50;;;;;;7386666;19;20312;-78
2023/02/09 12:20:52;;;;;;;6.73;5.00;;;5.20;99.50;;;;;;7284140;19;2011914;-78
2023/02/09 12:23:33;;;;;;;7.68;5.40;;;5.20;98.70;;;;;;7387978;19;20858;-79
2023/02/09 12:26:22;;;;;;;8.27;5.40;;;5.30;97.10;;;;;;7285016;19;2004412;-79
2023/02/09 12:29:02;;;;;;;7.27;5.63;;;5.40;98.10;;;;;;7389507;19;20834;-81
2023/02/09 12:31:28;;;;;;;7.53;5.20;;;5.50;97.80;;;;;;7284091;19;2004554;-78
2023/02/09 12:33:56;;;;;;;7.68;5.40;;;5.50;97.20;;;;;;7387385;19;20325;-79
2023/02/09 12:36:22;;;;;;;7.88;4.63;;;5.60;96.90;;;;;;7387191;19;20935;-79
2023/02/09 12:38:53;;;;;;;6.80;4.88;;;5.50;95.30;;;;;;7389505;19;20432;-77
2023/02/09 12:41:23;;;;;;;6.55;4.90;;;5.60;95.80;;;;;;7388101;19;20328;-78
2023/02/09 12:43:49;;;;;;;7.05;4.95;;;5.50;95.10;;;;;;7387155;19;20380;-77
2023/02/09 12:46:27;;;;;;;7.32;5.78;;;5.40;95.20;;;;;;7388463;19;20701;-80
2023/02/09 12:49:21;;;;;;;7.20;5.22;;;5.20;94.90;;;;;;7286535;19;2004284;-78
2023/02/09 12:51:53;;;;;;;6.80;5.30;;;5.20;94.90;;;;;;7386018;19;20849;-78
2023/02/09 12:54:37;;;;;;;9.10;5.30;;;5.10;95.10;;;;;;7389285;19;20304;-79
2023/02/09 12:57:15;;;;;;;6.23;4.73;;;5.20;95.70;;;;;;7285927;19;2004556;-79
2023/02/09 12:59:52;;;;;;;6.47;4.70;;;5.20;95.00;;;;;;7386626;19;20384;-76
2023/02/09 13:02:36;;;;;;;4.90;3.90;;;5.40;94.30;;;;;;7387209;19;20305;-78
2023/02/09 13:05:12;;;;;;;6.85;4.55;;;5.50;93.00;;;;;;7283906;19;2011413;-81
2023/02/09 13:08:00;;;;;;;5.20;4.07;;;5.50;92.40;;;;;;7387819;19;20356;-76